createdAt,value
2022-12-25T00:01:40.949Z,136.95
2022-12-25T00:04:43.147Z,131.27
2022-12-25T00:07:45.279Z,121.18
2022-12-25T00:10:47.423Z,133.83
2022-12-25T00:13:49.561Z,102.80
2022-12-25T00:16:51.733Z,132.25
2022-12-25T00:19:54.098Z,124.33
2022-12-25T00:22:56.283Z,124.00
2022-12-25T00:25:58.479Z,95.82
2022-12-25T00:29:01.194Z,99.30
2022-12-25T00:32:03.366Z,99.53
2022-12-25T00:35:05.805Z,104.38
2022-12-25T00:38:08.147Z,93.95
2022-12-25T00:41:11.597Z,90.07
2022-12-25T00:44:13.946Z,105.35
2022-12-25T00:47:16.965Z,85.22
2022-12-25T00:50:19.206Z,93.32
2022-12-25T00:53:21.562Z,83.63
2022-12-25T00:56:23.812Z,80.72
2022-12-25T00:59:25.985Z,82.80
2022-12-25T01:02:28.255Z,77.87
2022-12-25T01:05:30.496Z,94.82
2022-12-25T01:08:34.746Z,91.13
2022-12-25T01:11:36.990Z,91.40
2022-12-25T01:14:39.124Z,75.07
2022-12-25T01:17:42.123Z,62.75
2022-12-25T01:20:44.219Z,61.58
2022-12-25T01:23:46.704Z,50.50
2022-12-25T01:26:48.852Z,38.40
2022-12-25T01:29:51.012Z,49.08
2022-12-25T01:32:53.117Z,43.25
2022-12-25T01:35:55.283Z,44.20
2022-12-25T01:38:57.539Z,41.72
2022-12-25T01:41:59.809Z,39.53
2022-12-25T01:45:17.217Z,39.93
2022-12-25T01:48:23.340Z,45.20
2022-12-25T01:51:30.842Z,45.58
2022-12-25T01:54:56.429Z,44.65
2022-12-25T01:57:58.664Z,41.78
2022-12-25T02:01:00.811Z,42.67
2022-12-25T02:04:06.748Z,46.38
2022-12-25T02:07:10.579Z,47.93
2022-12-25T02:10:13.650Z,47.70
2022-12-25T02:13:16.964Z,45.35
2022-12-25T02:16:22.424Z,43.83
2022-12-25T02:19:57.556Z,45.28
2022-12-25T02:23:08.514Z,42.88
2022-12-25T02:26:17.223Z,44.78
2022-12-25T02:29:22.448Z,42.13
2022-12-25T02:32:44.851Z,34.20
2022-12-25T02:35:51.048Z,45.08
2022-12-25T02:39:14.425Z,44.77
2022-12-25T02:42:23.374Z,47.80
2022-12-25T02:45:47.347Z,45.47
2022-12-25T02:49:31.621Z,43.05
2022-12-25T02:52:52.561Z,42.72
2022-12-25T02:56:30.978Z,43.60
2022-12-25T02:59:54.503Z,40.22
2022-12-25T03:03:16.321Z,40.27
2022-12-25T03:06:38.395Z,45.17
2022-12-25T03:10:06.048Z,35.90
2022-12-25T03:13:16.921Z,38.33
2022-12-25T03:16:38.661Z,34.38
2022-12-25T03:19:59.760Z,36.13
2022-12-25T03:23:21.583Z,36.53
2022-12-25T03:26:43.924Z,34.63
2022-12-25T03:30:04.679Z,34.75
2022-12-25T03:33:43.176Z,41.00
2022-12-25T03:37:13.280Z,38.57
2022-12-25T03:40:40.319Z,39.22
2022-12-25T03:44:11.857Z,43.15
2022-12-25T03:47:42.150Z,40.00
2022-12-25T03:51:10.382Z,44.05
2022-12-25T03:54:31.630Z,41.47
2022-12-25T03:57:53.542Z,46.67
2022-12-25T04:01:14.319Z,43.40
2022-12-25T04:04:35.164Z,40.42
2022-12-25T04:07:55.776Z,40.88
2022-12-25T04:11:16.504Z,42.13
2022-12-25T04:14:37.369Z,36.15
2022-12-25T04:17:58.855Z,49.78
2022-12-25T04:21:19.790Z,33.92
2022-12-25T04:24:40.613Z,25.38
2022-12-25T04:28:01.399Z,28.30
2022-12-25T04:31:22.324Z,29.38
2022-12-25T04:34:43.064Z,30.67
2022-12-25T04:37:45.257Z,29.30
2022-12-25T04:40:47.447Z,38.40
2022-12-25T04:43:49.544Z,33.90
2022-12-25T04:46:51.786Z,45.78
2022-12-25T04:49:54.016Z,45.28
2022-12-25T04:52:56.173Z,65.15
2022-12-25T04:56:01.946Z,56.28
2022-12-25T04:59:04.661Z,55.92
2022-12-25T05:02:06.983Z,56.00
2022-12-25T05:05:09.191Z,35.53
2022-12-25T05:08:11.658Z,34.03
2022-12-25T05:11:14.872Z,28.67
2022-12-25T05:14:17.010Z,27.07
2022-12-25T05:17:19.373Z,23.75
2022-12-25T05:20:21.556Z,28.10
2022-12-25T05:23:23.652Z,22.23
2022-12-25T05:26:26.515Z,23.25
2022-12-25T05:29:28.628Z,32.63
2022-12-25T05:32:31.133Z,28.25
2022-12-25T05:35:33.360Z,31.17
2022-12-25T05:38:35.572Z,28.27
2022-12-25T05:41:37.692Z,23.70
2022-12-25T05:44:45.978Z,20.57
2022-12-25T05:47:48.110Z,22.20
2022-12-25T05:50:50.164Z,22.20
2022-12-25T05:53:52.292Z,22.77
2022-12-25T05:56:54.473Z,24.95
2022-12-25T05:59:56.625Z,32.85
2022-12-25T06:02:59.013Z,34.58
2022-12-25T06:06:02.711Z,28.93
2022-12-25T06:09:05.140Z,36.58
2022-12-25T06:12:07.651Z,35.72
2022-12-25T06:15:09.848Z,31.87
2022-12-25T06:18:11.945Z,35.05
2022-12-25T06:21:14.855Z,27.25
2022-12-25T06:24:21.248Z,31.10
2022-12-25T06:27:23.780Z,34.45
2022-12-25T06:30:25.910Z,35.78
2022-12-25T06:33:28.059Z,30.25
2022-12-25T06:36:30.106Z,28.23
2022-12-25T06:39:32.510Z,30.88
2022-12-25T06:42:34.683Z,37.78
2022-12-25T06:45:36.839Z,53.67
2022-12-25T06:48:40.172Z,63.25
2022-12-25T06:51:42.428Z,66.47
2022-12-25T06:54:44.527Z,63.33
2022-12-25T06:57:46.661Z,62.53
2022-12-25T07:00:48.827Z,51.85
2022-12-25T07:03:53.031Z,40.03
2022-12-25T07:06:55.154Z,35.60
2022-12-25T07:09:57.588Z,32.60
2022-12-25T07:12:59.725Z,30.95
2022-12-25T07:16:03.399Z,26.47
2022-12-25T07:19:05.533Z,32.17
2022-12-25T07:22:07.771Z,37.65
2022-12-25T07:25:09.871Z,32.80
2022-12-25T07:28:11.955Z,37.17
2022-12-25T07:31:14.896Z,41.85
2022-12-25T07:34:17.659Z,34.75
2022-12-25T07:37:19.745Z,34.63
2022-12-25T07:40:21.997Z,39.53
2022-12-25T07:43:24.261Z,33.95
2022-12-25T07:46:26.997Z,36.10
2022-12-25T07:49:29.315Z,31.58
2022-12-25T07:52:31.531Z,32.20
2022-12-25T07:55:34.014Z,34.38
2022-12-25T07:58:36.152Z,35.75
2022-12-25T08:01:38.480Z,38.42
2022-12-25T08:04:41.787Z,37.10
2022-12-25T08:07:43.893Z,32.73
2022-12-25T08:10:47.375Z,33.72
2022-12-25T08:13:49.510Z,33.10
2022-12-25T08:16:51.920Z,77.47
2022-12-25T08:19:54.164Z,48.92
2022-12-25T08:22:56.660Z,27.58
2022-12-25T08:26:04.533Z,24.08
2022-12-25T08:29:07.776Z,30.17
2022-12-25T08:32:10.205Z,28.02
2022-12-25T08:35:12.307Z,30.15
2022-12-25T08:38:14.485Z,40.13
2022-12-25T08:41:16.806Z,45.25
2022-12-25T08:44:18.960Z,40.88
2022-12-25T08:47:21.051Z,41.87
2022-12-25T08:50:24.116Z,37.80
2022-12-25T08:53:26.454Z,37.28
2022-12-25T08:56:28.735Z,36.53
2022-12-25T08:59:30.997Z,41.47
2022-12-25T09:02:33.628Z,47.20
2022-12-25T09:05:36.776Z,56.72
2022-12-25T09:08:45.977Z,41.13
2022-12-25T09:11:50.983Z,42.53
2022-12-25T09:14:53.336Z,40.00
2022-12-25T09:17:55.468Z,40.50
2022-12-25T09:21:07.714Z,39.88
2022-12-25T09:24:09.833Z,42.10
2022-12-25T09:27:11.995Z,28.08
2022-12-25T09:30:14.226Z,35.27
2022-12-25T09:33:16.361Z,60.83
2022-12-25T09:36:18.768Z,39.03
2022-12-25T09:39:21.048Z,52.92
2022-12-25T09:42:25.001Z,33.25
2022-12-25T09:45:28.418Z,57.67
2022-12-25T09:48:32.943Z,46.95
2022-12-25T09:51:35.975Z,52.83
2022-12-25T09:54:44.265Z,46.38
2022-12-25T09:57:49.529Z,37.90
2022-12-25T10:00:55.680Z,40.63
2022-12-25T10:04:06.087Z,39.17
2022-12-25T10:07:18.227Z,37.92
2022-12-25T10:10:20.391Z,36.90
2022-12-25T10:13:34.761Z,35.73
2022-12-25T10:16:55.730Z,31.52
2022-12-25T10:19:57.848Z,34.42
2022-12-25T10:23:01.881Z,35.92
2022-12-25T10:26:12.122Z,36.97
2022-12-25T10:29:15.766Z,35.40
2022-12-25T10:32:17.907Z,29.63
2022-12-25T10:35:24.657Z,29.83
2022-12-25T10:38:26.819Z,29.27
2022-12-25T10:41:42.921Z,36.95
2022-12-25T10:44:58.836Z,36.00
2022-12-25T10:48:07.406Z,36.50
2022-12-25T10:51:10.150Z,33.60
2022-12-25T10:54:23.233Z,33.47
2022-12-25T10:57:25.915Z,36.50
2022-12-25T11:00:29.831Z,35.57
2022-12-25T11:03:34.089Z,35.88
2022-12-25T11:06:36.399Z,45.03
2022-12-25T11:09:38.563Z,39.97
2022-12-25T11:12:42.909Z,43.87
2022-12-25T11:15:47.744Z,41.42
2022-12-25T11:18:51.531Z,32.60
2022-12-25T11:21:54.904Z,33.72
2022-12-25T11:24:57.116Z,31.80
2022-12-25T11:28:01.192Z,34.27
2022-12-25T11:31:23.183Z,31.98
2022-12-25T11:34:25.303Z,33.95
2022-12-25T11:37:34.679Z,35.43
2022-12-25T11:40:41.734Z,42.10
2022-12-25T11:43:53.602Z,36.50
2022-12-25T11:46:56.338Z,39.42
2022-12-25T11:50:23.558Z,40.20
2022-12-25T11:53:29.880Z,37.35
2022-12-25T11:56:33.059Z,38.17
2022-12-25T11:59:38.533Z,35.75
2022-12-25T12:02:46.115Z,33.45
2022-12-25T12:05:53.398Z,31.77
2022-12-25T12:09:06.650Z,29.27
2022-12-25T12:12:14.398Z,30.55
2022-12-25T12:15:19.340Z,27.75
2022-12-25T12:18:27.699Z,29.87
2022-12-25T12:21:30.982Z,32.38
2022-12-25T12:24:38.530Z,30.85
2022-12-25T12:27:41.055Z,30.17
2022-12-25T12:30:43.159Z,28.00
2022-12-25T12:33:56.084Z,28.45
2022-12-25T12:37:06.578Z,35.30
2022-12-25T12:40:21.649Z,37.70
2022-12-25T12:43:41.739Z,38.43
2022-12-25T12:46:51.423Z,40.53
2022-12-25T12:50:00.282Z,41.85
2022-12-25T12:53:26.752Z,68.78
2022-12-25T12:56:28.842Z,43.73
2022-12-25T12:59:40.068Z,44.97
2022-12-25T13:02:52.151Z,34.50
2022-12-25T13:05:57.298Z,67.63
2022-12-25T13:09:05.281Z,22.50
2022-12-25T13:12:08.277Z,72.45
2022-12-25T13:15:14.368Z,49.85
2022-12-25T13:18:16.871Z,54.60
2022-12-25T13:21:22.171Z,82.97
2022-12-25T13:24:26.253Z,49.70
2022-12-25T13:27:29.973Z,62.92
2022-12-25T13:30:32.158Z,66.27
2022-12-25T13:33:34.748Z,97.65
2022-12-25T13:36:37.843Z,94.57
2022-12-25T13:39:46.376Z,160.63
2022-12-25T13:42:49.426Z,170.27
2022-12-25T13:45:54.653Z,103.82
2022-12-25T13:49:00.469Z,175.38
2022-12-25T13:52:10.810Z,100.55
2022-12-25T13:55:18.817Z,129.87
2022-12-25T13:58:27.235Z,66.63
2022-12-25T14:01:29.562Z,98.43
2022-12-25T14:04:31.911Z,102.80
2022-12-25T14:07:35.385Z,89.67
2022-12-25T14:10:38.603Z,53.13
2022-12-25T14:13:41.744Z,87.78
2022-12-25T14:16:45.095Z,130.93
2022-12-25T14:19:55.782Z,128.10
2022-12-25T14:22:59.076Z,116.43
2022-12-25T14:26:01.208Z,174.48
2022-12-25T14:29:16.559Z,172.27
2022-12-25T14:32:22.116Z,141.75
2022-12-25T14:35:24.553Z,150.02
2022-12-25T14:38:28.515Z,150.02
2022-12-25T14:41:34.706Z,214.70
2022-12-25T14:44:41.050Z,121.68
2022-12-25T14:47:56.947Z,139.13
2022-12-25T14:51:00.971Z,192.97
2022-12-25T14:54:05.148Z,185.63
2022-12-25T14:57:07.275Z,144.02
2022-12-25T15:00:29.881Z,135.73
2022-12-25T15:03:36.381Z,118.28
2022-12-25T15:06:51.740Z,97.38
2022-12-25T15:10:18.600Z,99.97
2022-12-25T15:13:19.181Z,125.37
2022-12-25T15:16:44.665Z,99.18
2022-12-25T15:19:46.825Z,69.60
2022-12-25T15:23:17.781Z,79.47
2022-12-25T15:26:15.180Z,92.63
2022-12-25T15:29:27.585Z,86.43
2022-12-25T15:32:39.480Z,99.03
2022-12-25T15:35:44.300Z,79.97
2022-12-25T15:38:46.660Z,91.07
2022-12-25T15:42:08.139Z,76.93
2022-12-25T15:45:17.155Z,98.43
2022-12-25T15:48:19.341Z,88.30
2022-12-25T15:51:21.506Z,78.22
2022-12-25T15:54:23.692Z,95.85
2022-12-25T15:57:26.405Z,89.05
2022-12-25T16:00:28.985Z,92.50
2022-12-25T16:03:31.237Z,115.93
2022-12-25T16:06:33.399Z,93.40
2022-12-25T16:09:35.497Z,80.23
2022-12-25T16:12:39.030Z,89.55
2022-12-25T16:15:41.247Z,94.38
2022-12-25T16:18:47.377Z,80.40
2022-12-25T16:21:50.208Z,110.43
2022-12-25T16:24:52.615Z,97.68
2022-12-25T16:27:54.706Z,117.05
2022-12-25T16:30:56.877Z,111.77
2022-12-25T16:33:59.275Z,119.20
2022-12-25T16:37:01.364Z,114.55
2022-12-25T16:40:03.665Z,74.78
2022-12-25T16:43:05.855Z,73.97
2022-12-25T16:46:12.963Z,52.70
2022-12-25T16:49:15.165Z,70.32
2022-12-25T16:52:17.249Z,95.20
2022-12-25T16:55:19.802Z,78.07
2022-12-25T16:58:23.672Z,65.55
2022-12-25T17:01:25.952Z,43.33
2022-12-25T17:04:29.456Z,39.33
2022-12-25T17:07:31.574Z,44.47
2022-12-25T17:10:33.848Z,21.52
2022-12-25T17:13:36.129Z,21.20
2022-12-25T17:16:38.511Z,44.40
2022-12-25T17:19:41.440Z,20.40
2022-12-25T17:22:43.856Z,34.73
2022-12-25T17:25:46.021Z,54.45
2022-12-25T17:28:48.116Z,33.25
2022-12-25T17:31:50.629Z,53.85
2022-12-25T17:34:53.420Z,50.03
2022-12-25T17:37:55.506Z,25.77
2022-12-25T17:40:58.146Z,51.67
2022-12-25T17:44:00.295Z,58.97
2022-12-25T17:47:02.443Z,75.95
2022-12-25T17:50:04.881Z,62.92
2022-12-25T17:53:07.081Z,74.70
2022-12-25T17:56:09.863Z,55.70
2022-12-25T17:59:17.944Z,82.90
2022-12-25T18:02:20.679Z,87.32
2022-12-25T18:05:22.992Z,88.97
2022-12-25T18:08:25.171Z,73.10
2022-12-25T18:11:29.341Z,68.38
2022-12-25T18:14:31.524Z,69.17
2022-12-25T18:17:33.617Z,67.65
2022-12-25T18:20:39.879Z,56.85
2022-12-25T18:23:42.693Z,75.80
2022-12-25T18:26:45.813Z,82.75
2022-12-25T18:29:48.267Z,73.82
2022-12-25T18:32:50.572Z,85.03
2022-12-25T18:35:59.754Z,99.28
2022-12-25T18:39:02.682Z,83.88
2022-12-25T18:42:23.487Z,58.00
2022-12-25T18:45:25.742Z,79.27
2022-12-25T18:48:27.897Z,56.22
2022-12-25T18:51:36.618Z,48.55
2022-12-25T18:54:39.356Z,70.15
2022-12-25T18:57:42.069Z,67.40
2022-12-25T19:00:44.359Z,57.50
2022-12-25T19:03:48.968Z,59.33
2022-12-25T19:06:52.261Z,68.77
2022-12-25T19:09:54.443Z,37.72
2022-12-25T19:12:56.533Z,69.40
2022-12-25T19:15:59.379Z,60.60
2022-12-25T19:19:01.909Z,65.05
2022-12-25T19:22:04.145Z,69.07
2022-12-25T19:25:06.634Z,47.60
2022-12-25T19:28:08.706Z,49.50
2022-12-25T19:31:11.512Z,40.20
2022-12-25T19:34:13.782Z,38.90
2022-12-25T19:37:15.911Z,46.33
2022-12-25T19:40:18.371Z,54.90
2022-12-25T19:43:20.776Z,60.92
2022-12-25T19:46:24.721Z,59.67
2022-12-25T19:49:26.943Z,44.78
2022-12-25T19:52:29.576Z,34.20
2022-12-25T19:55:31.980Z,24.20
2022-12-25T19:58:34.113Z,36.87
2022-12-25T20:01:36.352Z,39.70
2022-12-25T20:04:38.726Z,28.85
2022-12-25T20:07:40.999Z,38.25
2022-12-25T20:10:46.640Z,39.53
2022-12-25T20:13:48.803Z,25.65
2022-12-25T20:16:51.049Z,33.45
2022-12-25T20:19:53.182Z,23.48
2022-12-25T20:22:55.444Z,24.50
2022-12-25T20:25:59.799Z,30.70
2022-12-25T20:29:04.323Z,25.92
2022-12-25T20:32:06.643Z,23.00
2022-12-25T20:35:09.236Z,25.88
2022-12-25T20:38:11.421Z,34.97
2022-12-25T20:41:31.176Z,44.27
2022-12-25T20:44:33.460Z,45.45
2022-12-25T20:47:35.657Z,37.25
2022-12-25T20:50:37.726Z,41.75
2022-12-25T20:53:39.778Z,32.65
2022-12-25T20:56:41.889Z,45.05
2022-12-25T20:59:44.003Z,58.05
2022-12-25T21:02:46.350Z,41.07
2022-12-25T21:05:55.695Z,36.03
2022-12-25T21:08:57.903Z,29.23
2022-12-25T21:12:00.111Z,30.17
2022-12-25T21:15:02.550Z,27.52
2022-12-25T21:18:04.780Z,33.88
2022-12-25T21:21:07.794Z,28.15
2022-12-25T21:24:10.664Z,27.63
2022-12-25T21:27:12.992Z,25.35
2022-12-25T21:30:15.969Z,29.52
2022-12-25T21:33:36.670Z,28.02
2022-12-25T21:36:41.255Z,28.95
2022-12-25T21:39:43.587Z,40.85
2022-12-25T21:42:46.266Z,34.35
2022-12-25T21:45:48.392Z,32.60
2022-12-25T21:48:50.909Z,29.67
2022-12-25T21:52:07.962Z,31.90
2022-12-25T21:55:10.175Z,36.03
2022-12-25T21:58:12.522Z,36.23
2022-12-25T22:01:17.549Z,32.97
2022-12-25T22:04:21.135Z,37.08
2022-12-25T22:07:23.197Z,35.17
2022-12-25T22:10:25.405Z,29.43
2022-12-25T22:13:47.345Z,32.20
2022-12-25T22:17:08.518Z,34.78
2022-12-25T22:20:13.204Z,36.65
2022-12-25T22:23:16.297Z,39.27
2022-12-25T22:26:20.966Z,35.92
2022-12-25T22:29:23.488Z,35.55
2022-12-25T22:32:25.855Z,32.88
2022-12-25T22:35:28.073Z,29.33
2022-12-25T22:38:30.565Z,30.95
2022-12-25T22:41:33.859Z,29.30
2022-12-25T22:44:36.230Z,33.20
2022-12-25T22:47:38.302Z,35.33
2022-12-25T22:50:40.495Z,34.92
2022-12-25T22:53:42.664Z,36.53
2022-12-25T22:56:45.286Z,35.50
2022-12-25T22:59:47.392Z,32.83
2022-12-25T23:02:49.941Z,33.33
2022-12-25T23:05:55.784Z,34.90
2022-12-25T23:08:58.037Z,33.97
2022-12-25T23:12:00.158Z,36.17
2022-12-25T23:15:02.218Z,34.58
2022-12-25T23:18:23.768Z,40.67
2022-12-25T23:21:45.039Z,37.97
2022-12-25T23:25:05.984Z,41.22
2022-12-25T23:28:09.436Z,33.85
2022-12-25T23:31:14.010Z,37.38
2022-12-25T23:34:16.193Z,38.47
2022-12-25T23:37:18.900Z,33.85
2022-12-25T23:40:21.238Z,37.97
2022-12-25T23:43:23.409Z,37.45
2022-12-25T23:46:25.659Z,39.88
2022-12-25T23:49:27.881Z,39.43
2022-12-25T23:52:30.118Z,39.58
2022-12-25T23:55:33.831Z,36.25
2022-12-25T23:58:36.520Z,37.45
